createdAt,value
2022-10-13T00:00:42.999Z,11.70
2022-10-13T00:05:48.337Z,11.74
2022-10-13T00:10:52.524Z,11.74
2022-10-13T00:16:04.069Z,11.74
2022-10-13T00:21:09.324Z,11.72
2022-10-13T00:26:15.229Z,11.72
2022-10-13T00:31:21.239Z,11.71
2022-10-13T00:36:24.931Z,11.76
2022-10-13T00:41:28.305Z,11.82
2022-10-13T00:46:34.383Z,11.84
2022-10-13T00:51:42.229Z,11.89
2022-10-13T00:56:46.859Z,11.90
2022-10-13T01:01:52.468Z,11.90
2022-10-13T01:06:56.260Z,11.91
2022-10-13T01:12:08.460Z,11.91
2022-10-13T01:17:20.287Z,12.00
2022-10-13T01:22:46.308Z,12.03
2022-10-13T01:28:10.058Z,12.14
2022-10-13T01:33:36.123Z,12.18
2022-10-13T01:38:46.632Z,12.19
2022-10-13T01:43:54.919Z,12.16
2022-10-13T01:49:03.649Z,12.19
2022-10-13T01:54:07.081Z,12.22
2022-10-13T01:59:14.747Z,12.22
2022-10-13T02:04:32.400Z,12.24
2022-10-13T02:09:42.632Z,12.24
2022-10-13T02:14:47.972Z,12.24
2022-10-13T02:19:52.347Z,12.28
2022-10-13T02:24:55.281Z,12.31
2022-10-13T02:29:59.098Z,12.34
2022-10-13T02:35:07.624Z,12.36
2022-10-13T02:40:11.644Z,12.25
2022-10-13T02:45:15.047Z,12.17
2022-10-13T02:50:19.685Z,12.28
2022-10-13T02:55:26.456Z,12.35
2022-10-13T03:00:32.843Z,12.39
2022-10-13T03:05:37.137Z,12.39
2022-10-13T03:10:40.296Z,12.39
2022-10-13T03:15:43.205Z,12.44
2022-10-13T03:20:56.725Z,12.47
2022-10-13T03:25:59.659Z,12.50
2022-10-13T03:31:03.211Z,12.51
2022-10-13T03:36:08.784Z,12.53
2022-10-13T03:41:13.716Z,12.56
2022-10-13T03:46:19.382Z,12.57
2022-10-13T03:51:24.969Z,12.58
2022-10-13T03:56:28.955Z,12.59
2022-10-13T04:01:32.173Z,12.61
2022-10-13T04:06:36.451Z,12.60
2022-10-13T04:11:39.530Z,12.59
2022-10-13T04:16:42.505Z,12.56
2022-10-13T04:21:46.750Z,12.54
2022-10-13T04:26:49.661Z,12.54
2022-10-13T04:31:53.067Z,12.56
2022-10-13T04:36:57.494Z,12.57
2022-10-13T04:42:00.398Z,12.58
2022-10-13T04:47:03.280Z,12.61
2022-10-13T04:52:07.742Z,12.62
2022-10-13T04:57:10.736Z,12.65
2022-10-13T05:02:13.681Z,12.67
2022-10-13T05:07:18.767Z,12.63
2022-10-13T05:12:22.221Z,12.58
2022-10-13T05:17:26.238Z,12.56
2022-10-13T05:22:31.022Z,12.51
2022-10-13T05:27:35.165Z,12.51
2022-10-13T05:32:40.912Z,12.49
2022-10-13T05:37:46.254Z,12.51
2022-10-13T05:42:50.584Z,12.55
2022-10-13T05:47:53.891Z,12.54
2022-10-13T05:52:58.634Z,12.51
2022-10-13T05:58:03.378Z,12.57
2022-10-13T06:03:14.065Z,12.63
2022-10-13T06:08:21.026Z,12.72
2022-10-13T06:13:27.496Z,12.78
2022-10-13T06:18:30.469Z,12.81
2022-10-13T06:23:34.893Z,12.83
2022-10-13T06:28:38.071Z,12.88
2022-10-13T06:33:41.152Z,12.82
2022-10-13T06:38:45.516Z,12.71
2022-10-13T06:43:48.421Z,12.68
2022-10-13T06:48:53.620Z,12.67
2022-10-13T06:53:59.171Z,12.66
2022-10-13T06:59:02.621Z,12.66
2022-10-13T07:04:05.564Z,12.67
2022-10-13T07:09:10.549Z,12.69
2022-10-13T07:14:13.731Z,12.72
2022-10-13T07:19:16.706Z,12.73
2022-10-13T07:24:21.140Z,12.77
2022-10-13T07:29:24.292Z,12.77
2022-10-13T07:34:27.407Z,12.82
2022-10-13T07:39:31.976Z,12.86
2022-10-13T07:44:34.955Z,12.91
2022-10-13T07:49:38.199Z,13.02
2022-10-13T07:54:42.611Z,13.07
2022-10-13T07:59:45.805Z,13.11
2022-10-13T08:04:49.565Z,13.20
2022-10-13T08:09:53.907Z,13.38
2022-10-13T08:14:59.350Z,13.54
2022-10-13T08:20:06.742Z,13.58
2022-10-13T08:25:12.410Z,13.70
2022-10-13T08:30:15.466Z,13.86
2022-10-13T08:35:18.457Z,14.01
2022-10-13T08:40:24.260Z,14.12
2022-10-13T08:45:45.649Z,14.22
2022-10-13T08:50:56.050Z,14.34
2022-10-13T08:56:05.951Z,14.46
2022-10-13T09:01:15.528Z,14.56
2022-10-13T09:06:27.766Z,14.71
2022-10-13T09:11:35.130Z,14.90
2022-10-13T09:16:40.052Z,15.01
2022-10-13T09:21:45.589Z,15.09
2022-10-13T09:26:52.793Z,15.18
2022-10-13T09:32:14.408Z,15.15
2022-10-13T09:37:20.956Z,15.11
2022-10-13T09:42:27.805Z,15.11
2022-10-13T09:47:33.476Z,15.14
2022-10-13T09:52:37.153Z,15.21
2022-10-13T09:57:47.105Z,15.34
2022-10-13T10:02:55.175Z,15.39
2022-10-13T10:08:04.175Z,15.46
2022-10-13T10:13:11.940Z,15.54
2022-10-13T10:18:19.664Z,15.60
2022-10-13T10:23:33.895Z,15.59
2022-10-13T10:28:51.835Z,15.57
2022-10-13T10:34:15.307Z,15.71
2022-10-13T10:39:25.909Z,16.00
2022-10-13T10:44:34.274Z,16.16
2022-10-13T10:49:39.476Z,16.27
2022-10-13T10:54:50.139Z,16.30
2022-10-13T11:00:04.939Z,16.31
2022-10-13T11:05:08.036Z,16.33
2022-10-13T11:10:21.472Z,16.12
2022-10-13T11:15:27.554Z,16.11
2022-10-13T11:20:58.233Z,15.90
2022-10-13T11:26:29.774Z,15.71
2022-10-13T11:31:49.764Z,15.70
2022-10-13T11:36:57.735Z,15.66
2022-10-13T11:42:20.821Z,15.62
2022-10-13T11:47:53.890Z,15.66
2022-10-13T11:53:18.819Z,15.74
2022-10-13T11:58:24.125Z,15.78
2022-10-13T12:03:30.964Z,15.96
2022-10-13T12:08:35.762Z,16.51
2022-10-13T12:13:39.038Z,16.68
2022-10-13T12:18:43.529Z,16.88
2022-10-13T12:23:47.454Z,16.94
2022-10-13T12:28:55.493Z,16.89
2022-10-13T12:34:01.333Z,17.06
2022-10-13T12:39:08.597Z,17.24
2022-10-13T12:44:16.091Z,17.34
2022-10-13T12:49:23.501Z,17.27
2022-10-13T12:54:29.837Z,17.24
2022-10-13T12:59:33.581Z,17.12
2022-10-13T13:04:45.061Z,17.15
2022-10-13T13:10:01.473Z,16.85
2022-10-13T13:15:21.864Z,16.38
2022-10-13T13:20:30.052Z,16.22
2022-10-13T13:25:33.418Z,16.27
2022-10-13T13:30:37.131Z,16.43
2022-10-13T13:35:41.937Z,16.46
2022-10-13T13:40:45.062Z,16.53
2022-10-13T13:45:48.873Z,16.53
2022-10-13T13:50:53.281Z,16.46
2022-10-13T13:55:56.600Z,16.49
2022-10-13T14:01:00.801Z,16.57
2022-10-13T14:06:05.726Z,16.47
2022-10-13T14:11:09.421Z,16.34
2022-10-13T14:16:17.820Z,16.22
2022-10-13T14:21:23.902Z,16.03
2022-10-13T14:26:26.943Z,15.68
2022-10-13T14:31:30.780Z,15.55
2022-10-13T14:36:35.164Z,15.45
2022-10-13T14:41:38.905Z,15.44
2022-10-13T14:46:42.079Z,15.36
2022-10-13T14:51:46.719Z,15.30
2022-10-13T14:56:49.726Z,15.25
2022-10-13T15:01:52.677Z,15.21
2022-10-13T15:06:57.315Z,15.28
2022-10-13T15:12:00.733Z,15.38
2022-10-13T15:17:04.678Z,15.50
2022-10-13T15:22:09.565Z,15.57
2022-10-13T15:27:12.643Z,15.54
2022-10-13T15:32:18.724Z,15.59
2022-10-13T15:37:28.855Z,15.58
2022-10-13T15:42:31.800Z,15.46
2022-10-13T15:47:36.565Z,15.34
2022-10-13T15:52:41.575Z,15.23
2022-10-13T15:57:45.606Z,15.17
2022-10-13T16:02:52.183Z,15.09
2022-10-13T16:07:56.566Z,15.09
2022-10-13T16:12:59.774Z,15.12
2022-10-13T16:18:02.830Z,15.10
2022-10-13T16:23:07.245Z,15.10
2022-10-13T16:28:10.288Z,15.01
2022-10-13T16:33:15.050Z,14.93
2022-10-13T16:38:19.821Z,14.90
2022-10-13T16:43:22.747Z,14.72
2022-10-13T16:48:31.218Z,14.70
2022-10-13T16:53:35.929Z,14.65
2022-10-13T16:58:43.402Z,14.26
2022-10-13T17:03:47.245Z,14.04
2022-10-13T17:08:51.727Z,13.99
2022-10-13T17:13:57.283Z,13.88
2022-10-13T17:19:00.285Z,13.68
2022-10-13T17:24:10.994Z,13.57
2022-10-13T17:29:13.953Z,13.55
2022-10-13T17:34:16.886Z,13.59
2022-10-13T17:39:21.159Z,13.37
2022-10-13T17:44:24.173Z,13.27
2022-10-13T17:49:27.136Z,13.21
2022-10-13T17:54:31.586Z,13.10
2022-10-13T17:59:34.579Z,13.04
2022-10-13T18:04:37.636Z,13.07
2022-10-13T18:09:42.125Z,13.07
2022-10-13T18:14:45.120Z,13.10
2022-10-13T18:19:49.211Z,13.05
2022-10-13T18:24:57.077Z,12.92
2022-10-13T18:30:00.365Z,12.91
2022-10-13T18:35:05.793Z,12.94
2022-10-13T18:40:11.626Z,12.86
2022-10-13T18:45:14.826Z,12.87
2022-10-13T18:50:17.946Z,12.87
2022-10-13T18:55:23.029Z,12.91
2022-10-13T19:00:26.363Z,12.92
2022-10-13T19:05:29.480Z,12.95
2022-10-13T19:10:34.673Z,13.00
2022-10-13T19:15:39.459Z,13.02
2022-10-13T19:20:42.681Z,13.04
2022-10-13T19:25:46.974Z,13.04
2022-10-13T19:30:51.033Z,13.02
2022-10-13T19:35:54.067Z,13.03
2022-10-13T19:41:03.097Z,12.97
2022-10-13T19:46:08.251Z,12.95
2022-10-13T19:51:11.829Z,12.91
2022-10-13T19:56:25.796Z,12.90
2022-10-13T20:01:29.384Z,12.90
2022-10-13T20:06:34.209Z,12.89
2022-10-13T20:11:40.146Z,12.88
2022-10-13T20:16:43.474Z,12.80
2022-10-13T20:21:48.096Z,12.76
2022-10-13T20:26:52.500Z,12.74
2022-10-13T20:31:58.127Z,12.74
2022-10-13T20:37:01.075Z,12.71
2022-10-13T20:42:06.685Z,12.69
2022-10-13T20:47:09.680Z,12.70
2022-10-13T20:52:12.808Z,12.68
2022-10-13T20:57:17.097Z,12.72
2022-10-13T21:02:22.803Z,12.73
2022-10-13T21:07:28.419Z,12.72
2022-10-13T21:12:35.985Z,12.71
2022-10-13T21:17:42.307Z,12.72
2022-10-13T21:22:45.471Z,12.76
2022-10-13T21:27:52.749Z,12.77
2022-10-13T21:32:55.900Z,12.77
2022-10-13T21:37:58.844Z,12.74
2022-10-13T21:43:03.141Z,12.71
2022-10-13T21:48:07.653Z,12.65
2022-10-13T21:53:10.652Z,12.54
2022-10-13T21:58:14.984Z,12.45
2022-10-13T22:03:17.908Z,12.41
2022-10-13T22:08:37.345Z,12.30
2022-10-13T22:13:47.215Z,12.20
2022-10-13T22:18:52.980Z,12.19
2022-10-13T22:23:58.722Z,12.18
2022-10-13T22:29:04.553Z,12.07
2022-10-13T22:34:07.489Z,11.96
2022-10-13T22:39:11.436Z,11.93
2022-10-13T22:44:15.773Z,11.95
2022-10-13T22:49:18.908Z,11.87
2022-10-13T22:54:21.897Z,11.82
2022-10-13T22:59:26.180Z,11.72
2022-10-13T23:04:29.518Z,11.81
2022-10-13T23:09:32.438Z,11.92
2022-10-13T23:14:36.754Z,12.04
2022-10-13T23:19:39.741Z,12.08
2022-10-13T23:24:42.713Z,12.13
2022-10-13T23:29:46.941Z,12.17
2022-10-13T23:34:49.879Z,12.23
2022-10-13T23:39:52.842Z,12.27
2022-10-13T23:44:57.078Z,12.29
2022-10-13T23:49:59.949Z,12.36
2022-10-13T23:55:02.902Z,12.40
